createdAt,value
2017-09-02T00:00:24.419Z,95.12
2017-09-02T00:01:24.016Z,95.03
2017-09-02T00:02:24.068Z,95.27
2017-09-02T00:03:24.047Z,95.66
2017-09-02T00:04:24.000Z,95.19
2017-09-02T00:05:24.070Z,95.58
2017-09-02T00:06:24.039Z,95.41
2017-09-02T00:07:24.095Z,95.69
2017-09-02T00:08:24.078Z,95.48
2017-09-02T00:09:24.051Z,95.16
2017-09-02T00:10:24.807Z,95.37
2017-09-02T00:11:24.897Z,95.50
2017-09-02T00:12:24.859Z,95.27
2017-09-02T00:13:24.946Z,94.91
2017-09-02T00:14:24.891Z,95.16
2017-09-02T00:15:24.433Z,95.79
2017-09-02T00:16:24.497Z,95.92
2017-09-02T00:17:24.561Z,95.34
2017-09-02T00:18:24.114Z,95.42
2017-09-02T00:19:24.084Z,94.95
2017-09-02T00:20:24.044Z,94.89
2017-09-02T00:21:24.104Z,96.02
2017-09-02T00:22:24.165Z,95.22
2017-09-02T00:23:24.049Z,95.58
2017-09-02T00:24:24.095Z,94.98
2017-09-02T00:25:24.043Z,93.97
2017-09-02T00:26:24.890Z,94.80
2017-09-02T00:27:24.982Z,94.87
2017-09-02T00:28:24.934Z,94.85
2017-09-02T00:29:24.892Z,95.28
2017-09-02T00:30:24.944Z,94.89
2017-09-02T00:31:24.882Z,94.64
2017-09-02T00:32:24.940Z,95.08
2017-09-02T00:33:24.558Z,95.73
2017-09-02T00:34:24.110Z,95.19
2017-09-02T00:35:24.090Z,95.25
2017-09-02T00:36:24.132Z,95.06
2017-09-02T00:37:24.180Z,94.29
2017-09-02T00:38:24.163Z,95.78
2017-09-02T00:39:24.118Z,95.33
2017-09-02T00:40:24.229Z,95.02
2017-09-02T00:41:24.186Z,94.65
2017-09-02T00:42:24.147Z,95.04
2017-09-02T00:43:24.193Z,95.34
2017-09-02T00:44:24.137Z,95.78
2017-09-02T00:45:25.086Z,95.71
2017-09-02T00:46:24.934Z,95.55
2017-09-02T00:47:24.981Z,95.70
2017-09-02T00:48:24.918Z,95.62
2017-09-02T00:49:24.564Z,95.54
2017-09-02T00:50:25.318Z,95.37
2017-09-02T00:51:24.163Z,94.82
2017-09-02T00:52:24.204Z,95.33
2017-09-02T00:53:25.385Z,95.24
2017-09-02T00:54:24.214Z,95.37
2017-09-02T00:55:24.154Z,95.61
2017-09-02T00:56:24.147Z,95.05
2017-09-02T00:57:24.112Z,93.84
2017-09-02T00:58:24.178Z,95.32
2017-09-02T00:59:24.220Z,95.42
2017-09-02T01:02:20.960Z,94.82
2017-09-02T01:02:21.766Z,94.85
2017-09-02T01:02:24.285Z,94.65
2017-09-02T01:05:53.553Z,95.28
2017-09-02T01:05:54.669Z,94.67
2017-09-02T01:05:55.501Z,94.76
2017-09-02T01:08:26.042Z,95.54
2017-09-02T01:08:27.258Z,94.97
2017-09-02T01:08:28.072Z,96.18
2017-09-02T01:11:53.631Z,95.83
2017-09-02T01:11:54.250Z,95.49
2017-09-02T01:11:54.855Z,95.61
2017-09-02T01:15:11.521Z,95.65
2017-09-02T01:15:12.335Z,95.09
2017-09-02T01:15:13.048Z,95.93
2017-09-02T01:17:53.604Z,95.37
2017-09-02T01:17:54.828Z,95.90
2017-09-02T01:17:55.636Z,94.96
2017-09-02T01:20:24.870Z,95.27
2017-09-02T01:20:25.484Z,95.55
2017-09-02T01:20:26.294Z,95.67
2017-09-02T01:23:53.541Z,95.22
2017-09-02T01:23:54.765Z,95.28
2017-09-02T01:23:55.578Z,95.45
2017-09-02T01:26:24.864Z,95.26
2017-09-02T01:26:26.088Z,95.06
2017-09-02T01:26:26.695Z,94.34
2017-09-02T01:32:13.532Z,95.27
2017-09-02T01:32:14.340Z,95.66
2017-09-02T01:32:15.158Z,95.60
2017-09-02T01:32:15.971Z,95.26
2017-09-02T01:32:16.681Z,95.53
2017-09-02T01:32:24.306Z,95.77
2017-09-02T01:35:49.617Z,94.94
2017-09-02T01:35:50.840Z,95.48
2017-09-02T01:35:51.648Z,95.53
2017-09-02T01:38:37.826Z,95.33
2017-09-02T01:38:38.949Z,95.68
2017-09-02T01:38:39.765Z,95.61
2017-09-02T01:41:53.600Z,95.65
2017-09-02T01:41:54.823Z,95.55
2017-09-02T01:41:55.630Z,95.94
2017-09-02T01:44:28.882Z,96.23
2017-09-02T01:44:30.103Z,95.53
2017-09-02T01:44:30.704Z,95.80
2017-09-02T01:47:53.557Z,95.46
2017-09-02T01:47:54.377Z,94.69
2017-09-02T01:47:54.978Z,95.08
2017-09-02T01:51:07.849Z,95.21
2017-09-02T01:51:08.667Z,95.20
2017-09-02T01:51:09.274Z,95.26
2017-09-02T01:53:42.530Z,95.77
2017-09-02T01:53:43.750Z,95.54
2017-09-02T01:53:44.353Z,95.82
2017-09-02T01:56:33.832Z,96.69
2017-09-02T01:56:34.853Z,95.67
2017-09-02T01:56:35.769Z,95.60
2017-09-02T01:59:24.531Z,95.47
2017-09-02T01:59:25.249Z,95.25
2017-09-02T01:59:26.164Z,95.87
2017-09-02T02:01:56.548Z,96.24
2017-09-02T02:01:57.278Z,95.21
2017-09-02T02:02:24.383Z,96.06
2017-09-02T02:03:24.778Z,95.61
2017-09-02T02:04:24.818Z,95.30
2017-09-02T02:05:24.893Z,95.77
2017-09-02T02:06:25.235Z,95.80
2017-09-02T02:07:25.186Z,95.43
2017-09-02T02:08:25.338Z,94.63
2017-09-02T02:09:25.175Z,94.77
2017-09-02T02:10:25.236Z,95.11
2017-09-02T02:11:25.188Z,96.63
2017-09-02T02:12:25.254Z,95.64
2017-09-02T02:13:25.212Z,95.11
2017-09-02T02:14:24.763Z,95.42
2017-09-02T02:15:24.816Z,96.50
2017-09-02T02:16:24.363Z,95.21
2017-09-02T02:17:24.410Z,95.01
2017-09-02T02:18:24.462Z,95.23
2017-09-02T02:19:24.413Z,95.68
2017-09-02T02:20:24.391Z,95.15
2017-09-02T02:21:24.446Z,95.34
2017-09-02T02:22:24.496Z,95.35
2017-09-02T02:23:24.442Z,95.78
2017-09-02T02:24:24.382Z,95.94
2017-09-02T02:25:25.232Z,95.54
2017-09-02T02:26:25.210Z,95.14
2017-09-02T02:27:25.285Z,95.77
2017-09-02T02:28:25.245Z,95.65
2017-09-02T02:29:25.293Z,95.91
2017-09-02T02:30:25.049Z,95.74
2017-09-02T02:31:24.889Z,96.35
2017-09-02T02:32:24.938Z,96.15
2017-09-02T02:33:24.485Z,96.93
2017-09-02T02:34:24.433Z,96.35
2017-09-02T02:35:24.484Z,95.00
2017-09-02T02:36:24.522Z,95.35
2017-09-02T02:37:24.473Z,95.15
2017-09-02T02:38:24.520Z,95.10
2017-09-02T02:39:24.486Z,93.55
2017-09-02T02:40:24.437Z,93.37
2017-09-02T02:41:25.299Z,93.83
2017-09-02T02:42:25.343Z,95.66
2017-09-02T02:43:25.303Z,94.98
2017-09-02T02:44:25.279Z,95.76
2017-09-02T02:45:25.539Z,95.91
2017-09-02T02:46:25.272Z,94.28
2017-09-02T02:47:25.433Z,95.04
2017-09-02T02:48:24.449Z,95.72
2017-09-02T02:49:24.489Z,95.45
2017-09-02T02:50:24.531Z,95.72
2017-09-02T02:51:24.576Z,96.25
2017-09-02T02:52:24.533Z,96.44
2017-09-02T02:53:24.474Z,96.81
2017-09-02T02:54:24.527Z,96.21
2017-09-02T02:55:24.484Z,96.56
2017-09-02T02:56:24.512Z,96.48
2017-09-02T02:57:24.557Z,97.55
2017-09-02T02:58:24.494Z,96.75
2017-09-02T02:59:25.337Z,96.69
2017-09-02T03:00:25.364Z,96.08
2017-09-02T03:01:25.308Z,94.74
2017-09-02T03:02:25.372Z,95.00
2017-09-02T03:03:25.374Z,94.65
2017-09-02T03:04:24.922Z,94.82
2017-09-02T03:05:24.974Z,94.51
2017-09-02T03:06:24.551Z,94.86
2017-09-02T03:07:24.622Z,93.94
2017-09-02T03:08:24.503Z,94.05
2017-09-02T03:09:24.565Z,93.80
2017-09-02T03:10:24.549Z,94.60
2017-09-02T03:11:24.596Z,95.13
2017-09-02T03:12:24.631Z,93.88
2017-09-02T03:13:24.575Z,94.20
2017-09-02T03:14:24.616Z,93.68
2017-09-02T03:15:24.549Z,95.92
2017-09-02T03:16:25.390Z,94.84
2017-09-02T03:17:25.436Z,94.64
2017-09-02T03:18:25.379Z,94.98
2017-09-02T03:19:25.428Z,94.80
2017-09-02T03:20:24.963Z,96.57
2017-09-02T03:21:25.097Z,96.77
2017-09-02T03:22:25.045Z,95.84
2017-09-02T03:23:24.584Z,95.12
2017-09-02T03:24:24.555Z,95.68
2017-09-02T03:25:24.630Z,94.51
2017-09-02T03:26:24.578Z,95.15
2017-09-02T03:27:24.630Z,95.25
2017-09-02T03:28:24.567Z,95.27
2017-09-02T03:29:24.612Z,96.04
2017-09-02T03:30:24.654Z,96.34
2017-09-02T03:31:24.593Z,97.35
2017-09-02T03:32:25.427Z,96.32
2017-09-02T03:33:25.475Z,96.86
2017-09-02T03:34:25.414Z,97.69
2017-09-02T03:35:25.472Z,97.30
2017-09-02T03:36:40.940Z,97.30
2017-09-02T03:38:07.561Z,98.13
2017-09-02T03:38:08.368Z,98.17
2017-09-02T03:38:24.623Z,98.72
2017-09-02T03:39:25.467Z,99.06
2017-09-02T03:40:24.618Z,98.33
2017-09-02T03:41:24.656Z,97.47
2017-09-02T03:42:24.672Z,97.28
2017-09-02T03:43:24.629Z,97.44
2017-09-02T03:44:24.683Z,97.55
2017-09-02T03:45:24.624Z,98.77
2017-09-02T03:46:24.673Z,97.81
2017-09-02T03:47:24.703Z,96.88
2017-09-02T03:48:24.657Z,97.01
2017-09-02T03:49:25.490Z,96.87
2017-09-02T03:50:25.436Z,97.21
2017-09-02T03:51:25.491Z,97.54
2017-09-02T03:52:25.519Z,97.51
2017-09-02T03:53:25.563Z,98.04
2017-09-02T03:54:25.544Z,97.90
2017-09-02T03:55:25.079Z,97.70
2017-09-02T03:56:24.702Z,97.79
2017-09-02T03:57:24.692Z,97.46
2017-09-02T03:58:24.745Z,98.74
2017-09-02T03:59:24.703Z,98.05
2017-09-02T04:00:24.672Z,97.54
2017-09-02T04:01:24.710Z,97.84
2017-09-02T04:02:24.750Z,97.95
2017-09-02T04:03:24.755Z,98.45
2017-09-02T04:04:24.693Z,97.71
2017-09-02T04:05:25.542Z,97.54
2017-09-02T04:06:25.580Z,98.08
2017-09-02T04:07:25.624Z,98.22
2017-09-02T04:08:25.567Z,98.69
2017-09-02T04:09:25.503Z,97.00
2017-09-02T04:10:25.549Z,96.29
2017-09-02T04:11:25.091Z,96.84
2017-09-02T04:12:24.716Z,96.79
2017-09-02T04:13:24.767Z,98.03
2017-09-02T04:14:24.712Z,97.41
2017-09-02T04:15:24.751Z,97.80
2017-09-02T04:16:24.791Z,97.69
2017-09-02T04:17:24.736Z,97.97
2017-09-02T04:18:24.782Z,98.04
2017-09-02T04:19:24.720Z,97.08
2017-09-02T04:20:24.761Z,97.51
2017-09-02T04:21:24.789Z,96.90
2017-09-02T04:22:24.823Z,96.83
2017-09-02T04:23:25.657Z,97.36
2017-09-02T04:24:25.589Z,97.28
2017-09-02T04:25:25.592Z,97.79
2017-09-02T04:26:25.615Z,97.65
2017-09-02T04:27:32.966Z,96.65
2017-09-02T04:28:24.790Z,98.46
2017-09-02T04:29:25.551Z,97.67
2017-09-02T04:30:24.808Z,98.02
2017-09-02T04:31:24.845Z,97.86
2017-09-02T04:32:24.776Z,98.14
2017-09-02T04:33:24.816Z,98.05
2017-09-02T04:34:24.763Z,98.65
2017-09-02T04:35:24.817Z,98.23
2017-09-02T04:36:24.858Z,97.90
2017-09-02T04:37:24.796Z,98.18
2017-09-02T04:38:24.859Z,97.05
2017-09-02T04:39:24.803Z,97.11
2017-09-02T04:40:25.648Z,96.64
2017-09-02T04:41:25.615Z,96.22
2017-09-02T04:42:25.657Z,96.64
2017-09-02T04:43:25.695Z,97.19
2017-09-02T04:44:25.632Z,97.14
2017-09-02T04:45:25.275Z,97.18
2017-09-02T04:46:24.804Z,97.47
2017-09-02T04:47:24.845Z,96.96
2017-09-02T04:48:24.880Z,97.90
2017-09-02T04:49:24.827Z,98.25
2017-09-02T04:50:24.861Z,99.28
2017-09-02T04:51:24.814Z,97.74
2017-09-02T04:52:24.949Z,99.21
2017-09-02T04:53:24.820Z,98.17
2017-09-02T04:54:24.855Z,98.34
2017-09-02T04:55:24.817Z,98.93
2017-09-02T04:56:25.663Z,98.52
2017-09-02T04:57:25.810Z,98.87
2017-09-02T04:58:25.647Z,98.16
2017-09-02T04:59:25.713Z,97.88
2017-09-02T05:00:25.801Z,97.96
2017-09-02T05:01:25.241Z,98.81
2017-09-02T05:02:25.783Z,98.63
2017-09-02T05:03:25.342Z,97.76
2017-09-02T05:04:24.898Z,98.47
2017-09-02T05:05:24.959Z,97.88
2017-09-02T05:06:24.915Z,97.91
2017-09-02T05:07:24.997Z,98.23
2017-09-02T05:08:24.867Z,98.69
2017-09-02T05:09:24.922Z,98.40
2017-09-02T05:10:24.867Z,98.68
2017-09-02T05:11:24.900Z,100.00
2017-09-02T05:12:24.939Z,99.57
2017-09-02T05:13:25.740Z,99.24
2017-09-02T05:14:25.734Z,97.79
2017-09-02T05:15:25.728Z,97.82
2017-09-02T05:16:25.707Z,97.77
2017-09-02T05:17:25.810Z,97.81
2017-09-02T05:18:25.347Z,98.82
2017-09-02T05:19:25.339Z,98.36
2017-09-02T05:20:24.920Z,97.82
2017-09-02T05:21:24.970Z,98.64
2017-09-02T05:22:25.055Z,98.28
2017-09-02T05:23:25.003Z,98.43
2017-09-02T05:24:24.980Z,98.47
2017-09-02T05:25:24.956Z,98.70
2017-09-02T05:26:24.911Z,98.53
2017-09-02T05:27:24.984Z,99.46
2017-09-02T05:28:24.939Z,99.70
2017-09-02T05:29:25.826Z,99.40
2017-09-02T05:30:25.773Z,99.30
2017-09-02T05:31:25.733Z,99.29
2017-09-02T05:32:25.809Z,99.46
2017-09-02T05:33:25.786Z,99.36
2017-09-02T05:34:25.792Z,99.21
2017-09-02T05:35:25.854Z,98.83
2017-09-02T05:36:24.972Z,99.22
2017-09-02T05:37:25.034Z,99.44
2017-09-02T05:38:24.976Z,99.21
2017-09-02T05:39:25.038Z,99.26
2017-09-02T05:40:25.076Z,99.00
2017-09-02T05:41:25.011Z,99.00
2017-09-02T05:42:25.113Z,98.82
2017-09-02T05:43:24.954Z,100.00
2017-09-02T05:44:25.019Z,99.66
2017-09-02T05:45:25.016Z,99.60
2017-09-02T05:46:25.887Z,98.95
2017-09-02T05:47:25.824Z,98.37
2017-09-02T05:48:25.789Z,98.41
2017-09-02T05:49:25.872Z,99.41
2017-09-02T05:50:25.911Z,98.19
2017-09-02T05:51:25.858Z,98.23
2017-09-02T05:52:25.428Z,98.27
2017-09-02T05:53:25.020Z,99.79
2017-09-02T05:54:25.087Z,98.77
2017-09-02T05:55:25.024Z,97.35
2017-09-02T05:56:25.012Z,97.81
2017-09-02T05:57:25.039Z,98.27
2017-09-02T05:58:25.079Z,97.97
2017-09-02T05:59:25.029Z,98.44
2017-09-02T06:00:25.087Z,98.22
2017-09-02T06:01:25.044Z,98.11
2017-09-02T06:02:25.079Z,97.59
2017-09-02T06:03:25.022Z,97.70
2017-09-02T06:04:25.850Z,97.88
2017-09-02T06:05:25.887Z,98.07
2017-09-02T06:06:25.849Z,97.84
2017-09-02T06:07:25.889Z,98.93
2017-09-02T06:08:26.107Z,98.71
2017-09-02T06:09:25.022Z,97.58
2017-09-02T06:10:25.079Z,97.43
2017-09-02T06:11:25.021Z,97.40
2017-09-02T06:12:25.157Z,98.21
2017-09-02T06:13:25.094Z,98.33
2017-09-02T06:14:25.039Z,97.04
2017-09-02T06:15:25.084Z,98.05
2017-09-02T06:16:25.116Z,98.00
2017-09-02T06:17:25.061Z,97.49
2017-09-02T06:18:25.101Z,97.45
2017-09-02T06:19:25.136Z,96.34
2017-09-02T06:20:25.080Z,96.86
2017-09-02T06:21:25.915Z,95.57
2017-09-02T06:22:25.945Z,96.97
2017-09-02T06:23:25.895Z,96.06
2017-09-02T06:24:25.949Z,96.23
2017-09-02T06:25:25.911Z,96.07
2017-09-02T06:26:25.638Z,95.70
2017-09-02T06:27:25.585Z,97.18
2017-09-02T06:28:25.115Z,96.19
2017-09-02T06:29:25.076Z,98.17
2017-09-02T06:30:25.135Z,95.70
2017-09-02T06:31:25.078Z,96.39
2017-09-02T06:32:25.125Z,96.42
2017-09-02T06:33:25.195Z,96.82
2017-09-02T06:34:25.129Z,97.68
2017-09-02T06:35:25.165Z,96.26
2017-09-02T06:36:25.104Z,96.27
2017-09-02T06:37:25.939Z,95.82
2017-09-02T06:38:25.990Z,96.41
2017-09-02T06:39:25.928Z,96.55
2017-09-02T06:40:26.092Z,95.78
2017-09-02T06:41:25.924Z,96.30
2017-09-02T06:42:25.968Z,95.40
2017-09-02T06:43:26.014Z,95.27
2017-09-02T06:44:25.143Z,95.21
2017-09-02T06:45:25.682Z,94.53
2017-09-02T06:46:25.211Z,93.84
2017-09-02T06:47:25.155Z,93.75
2017-09-02T06:48:25.200Z,94.37
2017-09-02T06:49:25.230Z,94.61
2017-09-02T06:50:25.269Z,94.20
2017-09-02T06:51:25.239Z,92.85
2017-09-02T06:52:25.183Z,93.23
2017-09-02T06:53:25.224Z,93.09
2017-09-02T06:54:25.166Z,93.28
2017-09-02T06:55:26.021Z,93.39
2017-09-02T06:56:25.959Z,91.90
2017-09-02T06:57:26.015Z,91.71
2017-09-02T06:58:26.076Z,91.17
2017-09-02T06:59:26.024Z,92.42
2017-09-02T07:00:26.095Z,92.75
2017-09-02T07:01:25.645Z,92.11
2017-09-02T07:02:25.708Z,92.68
2017-09-02T07:03:25.265Z,92.06
2017-09-02T07:04:25.243Z,91.48
2017-09-02T07:05:25.208Z,92.36
2017-09-02T07:06:25.258Z,91.88
2017-09-02T07:07:25.316Z,91.30
2017-09-02T07:08:25.259Z,92.83
2017-09-02T07:09:25.199Z,91.35
2017-09-02T07:10:25.241Z,90.07
2017-09-02T07:11:25.877Z,90.49
2017-09-02T07:12:26.175Z,91.98
2017-09-02T07:13:26.138Z,91.89
2017-09-02T07:14:26.088Z,90.40
2017-09-02T07:15:26.135Z,91.09
2017-09-02T07:16:26.091Z,90.66
2017-09-02T07:17:26.139Z,89.28
2017-09-02T07:18:25.689Z,88.90
2017-09-02T07:19:25.274Z,89.71
2017-09-02T07:20:25.241Z,88.38
2017-09-02T07:21:25.285Z,86.62
2017-09-02T07:22:25.359Z,85.15
2017-09-02T07:23:25.298Z,87.59
2017-09-02T07:24:25.244Z,86.46
2017-09-02T07:25:25.286Z,88.09
2017-09-02T07:26:25.324Z,85.77
2017-09-02T07:27:25.519Z,85.87
2017-09-02T07:28:25.252Z,84.51
2017-09-02T07:29:26.095Z,85.34
2017-09-02T07:30:26.147Z,85.58
2017-09-02T07:31:26.097Z,85.63
2017-09-02T07:32:26.150Z,85.08
2017-09-02T07:33:26.113Z,85.70
2017-09-02T07:34:26.175Z,86.57
2017-09-02T07:35:25.733Z,87.33
2017-09-02T07:36:25.291Z,85.94
2017-09-02T07:37:25.333Z,85.71
2017-09-02T07:38:25.291Z,86.60
2017-09-02T07:39:25.343Z,86.34
2017-09-02T07:40:25.307Z,88.00
2017-09-02T07:41:25.343Z,86.47
2017-09-02T07:42:25.397Z,86.58
2017-09-02T07:43:25.278Z,87.55
2017-09-02T07:44:25.328Z,86.44
2017-09-02T07:45:25.356Z,85.46
2017-09-02T07:46:26.198Z,83.82
2017-09-02T07:47:26.240Z,83.22
2017-09-02T07:48:26.181Z,82.44
2017-09-02T07:49:26.224Z,81.11
2017-09-02T07:50:26.154Z,82.85
2017-09-02T07:51:26.321Z,81.50
2017-09-02T07:52:25.747Z,82.88
2017-09-02T07:53:25.809Z,81.50
2017-09-02T07:54:25.336Z,81.55
2017-09-02T07:55:25.380Z,81.39
2017-09-02T07:56:25.360Z,79.34
2017-09-02T07:57:25.513Z,81.78
2017-09-02T07:58:25.358Z,81.64
2017-09-02T07:59:25.411Z,81.49
2017-09-02T08:00:25.346Z,78.61
2017-09-02T08:01:25.409Z,77.46
2017-09-02T08:02:25.452Z,77.39
2017-09-02T08:03:25.415Z,78.56
2017-09-02T08:04:26.145Z,79.41
2017-09-02T08:05:26.287Z,78.26
2017-09-02T08:06:26.231Z,79.08
2017-09-02T08:07:26.209Z,79.72
2017-09-02T08:08:25.740Z,79.18
2017-09-02T08:09:26.309Z,79.47
2017-09-02T08:10:25.832Z,76.70
2017-09-02T08:11:25.376Z,78.11
2017-09-02T08:12:25.509Z,76.11
2017-09-02T08:13:25.445Z,76.61
2017-09-02T08:14:25.381Z,78.00
2017-09-02T08:15:25.420Z,75.13
2017-09-02T08:16:25.387Z,76.16
2017-09-02T08:17:25.439Z,75.87
2017-09-02T08:18:25.495Z,76.33
2017-09-02T08:19:25.456Z,78.63
2017-09-02T08:20:26.198Z,77.36
2017-09-02T08:21:26.237Z,77.74
2017-09-02T08:22:26.306Z,77.71
2017-09-02T08:23:26.267Z,76.99
2017-09-02T08:24:26.308Z,74.75
2017-09-02T08:25:26.268Z,76.74
2017-09-02T08:26:26.131Z,76.16
2017-09-02T08:27:25.904Z,76.32
2017-09-02T08:28:25.941Z,72.37
2017-09-02T08:29:25.475Z,72.45
2017-09-02T08:30:25.512Z,73.24
2017-09-02T08:31:25.472Z,72.97
2017-09-02T08:32:25.515Z,74.15
2017-09-02T08:33:25.452Z,73.89
2017-09-02T08:34:25.501Z,74.75
2017-09-02T08:35:25.545Z,73.98
2017-09-02T08:36:25.474Z,74.05
2017-09-02T08:37:26.349Z,71.74
2017-09-02T08:38:26.296Z,71.45
2017-09-02T08:39:26.345Z,71.64
2017-09-02T08:40:35.310Z,72.87
2017-09-02T08:41:25.540Z,72.27
2017-09-02T08:42:26.395Z,72.15
2017-09-02T08:43:25.934Z,71.68
2017-09-02T08:44:25.968Z,71.25
2017-09-02T08:45:25.531Z,72.84
2017-09-02T08:46:25.572Z,72.18
2017-09-02T08:47:25.530Z,71.92
2017-09-02T08:48:25.572Z,72.85
2017-09-02T08:49:25.539Z,71.80
2017-09-02T08:50:25.488Z,73.31
2017-09-02T08:51:25.623Z,70.82
2017-09-02T08:52:25.564Z,72.42
2017-09-02T08:53:25.519Z,71.28
2017-09-02T08:54:26.366Z,72.20
2017-09-02T08:55:26.317Z,70.35
2017-09-02T08:56:26.374Z,72.51
2017-09-02T08:57:26.434Z,72.14
2017-09-02T08:58:26.392Z,71.78
2017-09-02T08:59:26.422Z,68.31
2017-09-02T09:00:25.987Z,70.14
2017-09-02T09:01:26.026Z,69.53
2017-09-02T09:02:25.557Z,68.22
2017-09-02T09:03:25.597Z,69.95
2017-09-02T09:04:25.540Z,67.45
2017-09-02T09:05:25.607Z,66.84
2017-09-02T09:06:25.658Z,66.24
2017-09-02T09:07:25.609Z,63.17
2017-09-02T09:08:25.551Z,63.34
2017-09-02T09:09:25.545Z,66.12
2017-09-02T09:10:26.393Z,64.32
2017-09-02T09:11:26.446Z,62.15
2017-09-02T09:12:26.498Z,59.21
2017-09-02T09:13:26.462Z,62.27
2017-09-02T09:14:26.418Z,61.48
2017-09-02T09:15:26.382Z,57.80
2017-09-02T09:16:26.434Z,60.63
2017-09-02T09:17:26.013Z,61.17
2017-09-02T09:18:25.566Z,59.98
2017-09-02T09:19:25.608Z,63.03
2017-09-02T09:20:25.651Z,61.90
2017-09-02T09:21:25.638Z,58.70
2017-09-02T09:22:25.697Z,61.76
2017-09-02T09:23:25.652Z,59.80
2017-09-02T09:24:25.597Z,58.05
2017-09-02T09:25:25.643Z,59.81
2017-09-02T09:26:25.722Z,59.97
2017-09-02T09:27:25.769Z,62.13
2017-09-02T09:28:25.707Z,64.79
2017-09-02T09:29:26.466Z,65.78
2017-09-02T09:30:26.517Z,65.84
2017-09-02T09:31:26.574Z,65.35
2017-09-02T09:32:26.429Z,67.45
2017-09-02T09:33:26.476Z,68.41
2017-09-02T09:34:26.034Z,67.41
2017-09-02T09:35:26.086Z,65.88
2017-09-02T09:36:25.628Z,65.07
2017-09-02T09:37:25.673Z,62.91
2017-09-02T09:38:25.650Z,63.43
2017-09-02T09:39:25.686Z,65.27
2017-09-02T09:40:25.763Z,66.34
2017-09-02T09:41:25.723Z,63.30
2017-09-02T09:42:25.760Z,60.85
2017-09-02T09:43:25.715Z,60.61
2017-09-02T09:44:25.640Z,56.68
2017-09-02T09:45:26.589Z,57.71
2017-09-02T09:46:26.539Z,56.20
2017-09-02T09:47:26.560Z,56.50
2017-09-02T09:48:26.510Z,55.28
2017-09-02T09:49:26.054Z,54.67
2017-09-02T09:50:26.111Z,53.52
2017-09-02T09:51:26.149Z,59.09
2017-09-02T09:52:25.700Z,59.00
2017-09-02T09:53:25.741Z,60.53
2017-09-02T09:54:25.724Z,61.71
2017-09-02T09:55:25.794Z,59.82
2017-09-02T09:56:25.749Z,60.84
2017-09-02T09:57:25.794Z,63.72
2017-09-02T09:58:25.764Z,60.48
2017-09-02T09:59:25.734Z,60.53
2017-09-02T10:00:25.812Z,58.66
2017-09-02T10:01:25.782Z,64.96
2017-09-02T10:02:26.556Z,59.02
2017-09-02T10:03:26.555Z,59.15
2017-09-02T10:04:26.683Z,61.62
2017-09-02T10:05:26.649Z,61.63
2017-09-02T10:06:26.586Z,59.33
2017-09-02T10:07:26.134Z,57.83
2017-09-02T10:08:26.172Z,58.75
2017-09-02T10:09:26.213Z,60.54
2017-09-02T10:10:25.854Z,61.43
2017-09-02T10:11:25.801Z,60.29
2017-09-02T10:12:25.839Z,58.97
2017-09-02T10:13:25.784Z,62.60
2017-09-02T10:14:25.798Z,61.85
2017-09-02T10:15:25.795Z,65.03
2017-09-02T10:16:25.789Z,63.18
2017-09-02T10:17:25.760Z,63.08
2017-09-02T10:18:25.644Z,62.49
2017-09-02T10:19:25.787Z,61.24
2017-09-02T10:20:26.638Z,63.27
2017-09-02T10:21:26.602Z,62.16
2017-09-02T10:22:26.571Z,62.74
2017-09-02T10:23:26.637Z,62.60
2017-09-02T10:24:26.194Z,65.41
2017-09-02T10:25:26.253Z,66.04
2017-09-02T10:26:25.795Z,65.01
2017-09-02T10:27:25.839Z,65.33
2017-09-02T10:28:25.810Z,67.82
2017-09-02T10:29:25.845Z,67.12
2017-09-02T10:30:25.866Z,68.00
2017-09-02T10:31:25.824Z,66.64
2017-09-02T10:32:25.875Z,66.83
2017-09-02T10:33:25.822Z,67.11
2017-09-02T10:34:25.864Z,66.03
2017-09-02T10:35:25.927Z,65.52
2017-09-02T10:36:25.890Z,64.46
2017-09-02T10:37:26.643Z,64.93
2017-09-02T10:38:26.682Z,65.30
2017-09-02T10:39:26.631Z,63.60
2017-09-02T10:40:26.777Z,64.26
2017-09-02T10:41:26.714Z,64.04
2017-09-02T10:42:26.747Z,63.49
2017-09-02T10:43:26.297Z,66.22
2017-09-02T10:44:25.926Z,64.20
2017-09-02T10:45:25.965Z,63.47
2017-09-02T10:46:25.911Z,64.24
2017-09-02T10:47:25.854Z,64.08
2017-09-02T10:48:25.834Z,63.59
2017-09-02T10:49:25.876Z,61.63
2017-09-02T10:50:25.843Z,63.54
2017-09-02T10:51:25.890Z,62.13
2017-09-02T10:52:25.921Z,63.17
2017-09-02T10:53:26.673Z,65.18
2017-09-02T10:54:26.765Z,65.70
2017-09-02T10:55:26.714Z,64.59
2017-09-02T10:56:26.676Z,65.09
2017-09-02T10:57:26.740Z,65.29
2017-09-02T10:58:26.394Z,63.50
2017-09-02T10:59:26.351Z,68.61
2017-09-02T11:00:26.368Z,66.50
2017-09-02T11:01:25.903Z,63.85
2017-09-02T11:02:25.962Z,65.57
2017-09-02T11:03:25.942Z,68.52
2017-09-02T11:04:26.008Z,66.42
2017-09-02T11:05:25.997Z,66.48
2017-09-02T11:06:25.935Z,67.36
2017-09-02T11:07:25.883Z,67.30
2017-09-02T11:08:25.934Z,67.98
2017-09-02T11:09:26.706Z,67.11
2017-09-02T11:10:26.787Z,68.33
2017-09-02T11:11:26.719Z,68.85
2017-09-02T11:12:26.761Z,70.40
2017-09-02T11:13:26.742Z,69.98
2017-09-02T11:14:26.789Z,71.39
2017-09-02T11:15:26.831Z,68.41
2017-09-02T11:16:25.938Z,68.62
2017-09-02T11:17:25.965Z,68.14
2017-09-02T11:18:26.011Z,68.51
2017-09-02T11:19:25.959Z,68.68
2017-09-02T11:20:26.108Z,70.35
2017-09-02T11:21:25.960Z,69.61
2017-09-02T11:22:26.006Z,66.89
2017-09-02T11:23:25.963Z,67.05
2017-09-02T11:24:26.067Z,67.96
2017-09-02T11:25:25.955Z,68.24
2017-09-02T11:26:25.944Z,64.50
2017-09-02T11:27:26.995Z,65.43
2017-09-02T11:28:26.864Z,67.56
2017-09-02T11:29:26.925Z,66.32
2017-09-02T11:30:26.887Z,65.02
2017-09-02T11:31:26.867Z,64.55
2017-09-02T11:32:26.405Z,65.66
2017-09-02T11:33:25.968Z,64.09
2017-09-02T11:34:26.017Z,64.07
2017-09-02T11:35:26.509Z,63.86
2017-09-02T11:36:26.046Z,64.74
2017-09-02T11:37:25.991Z,65.95
2017-09-02T11:38:26.031Z,64.75
2017-09-02T11:39:26.083Z,63.65
2017-09-02T11:40:26.032Z,63.80
2017-09-02T11:41:25.998Z,61.41
2017-09-02T11:42:26.052Z,64.76
2017-09-02T11:43:25.987Z,63.49
2017-09-02T11:44:26.992Z,62.69
2017-09-02T11:45:27.554Z,60.97
2017-09-02T11:46:26.833Z,62.88
2017-09-02T11:47:27.007Z,62.54
2017-09-02T11:48:26.885Z,62.35
2017-09-02T11:49:26.943Z,64.40
2017-09-02T11:50:26.494Z,62.49
2017-09-02T11:51:26.049Z,60.78
2017-09-02T11:52:26.089Z,60.70
2017-09-02T11:53:26.065Z,63.46
2017-09-02T11:54:26.083Z,59.84
2017-09-02T11:55:26.055Z,63.54
2017-09-02T11:56:26.111Z,61.70
2017-09-02T11:57:26.078Z,60.83
2017-09-02T11:58:26.144Z,62.19
2017-09-02T11:59:26.093Z,60.58
2017-09-02T12:00:26.140Z,61.38
2017-09-02T12:01:26.043Z,59.38
2017-09-02T12:02:26.913Z,59.50
2017-09-02T12:03:27.058Z,59.16
2017-09-02T12:04:26.961Z,61.08
2017-09-02T12:05:27.535Z,60.61
2017-09-02T12:06:27.166Z,60.63
2017-09-02T12:07:26.624Z,59.62
2017-09-02T12:08:26.081Z,60.16
2017-09-02T12:09:26.123Z,59.64
2017-09-02T12:10:26.094Z,59.56
2017-09-02T12:11:26.149Z,60.23
2017-09-02T12:12:26.102Z,62.30
2017-09-02T12:13:26.148Z,59.86
2017-09-02T12:14:26.106Z,60.90
2017-09-02T12:15:26.153Z,62.48
2017-09-02T12:16:26.129Z,63.39
2017-09-02T12:17:26.173Z,65.49
2017-09-02T12:18:26.123Z,64.83
2017-09-02T12:19:26.172Z,63.69
2017-09-02T12:20:26.243Z,65.62
2017-09-02T12:21:26.190Z,65.45
2017-09-02T12:22:26.143Z,65.20
2017-09-02T12:23:27.016Z,66.48
2017-09-02T12:24:26.635Z,70.38
2017-09-02T12:25:26.556Z,69.89
2017-09-02T12:26:26.605Z,69.25
2017-09-02T12:27:26.117Z,69.88
2017-09-02T12:28:26.165Z,70.94
2017-09-02T12:29:26.160Z,71.51
2017-09-02T12:30:26.116Z,69.59
2017-09-02T12:31:26.271Z,71.68
2017-09-02T12:32:26.240Z,73.63
2017-09-02T12:33:26.227Z,69.83
2017-09-02T12:34:26.290Z,71.27
2017-09-02T12:35:26.230Z,72.01
2017-09-02T12:36:26.885Z,71.53
2017-09-02T12:37:27.034Z,70.17
2017-09-02T12:38:26.908Z,70.23
2017-09-02T12:39:27.064Z,67.54
2017-09-02T12:40:26.751Z,68.51
2017-09-02T12:41:27.110Z,70.37
2017-09-02T12:42:26.644Z,67.77
2017-09-02T12:43:26.220Z,68.90
2017-09-02T12:44:26.266Z,68.71
2017-09-02T12:45:26.212Z,67.81
2017-09-02T12:46:26.186Z,66.34
2017-09-02T12:47:27.277Z,66.55
2017-09-02T12:48:26.230Z,66.61
2017-09-02T12:49:26.317Z,63.45
2017-09-02T12:50:31.727Z,64.52
2017-09-02T12:51:26.237Z,63.84